sensor_id;sensor_type;location;lat;lon;timestamp;P1;durP1;ratioP1;P2;durP2;ratioP2
74620;SDS011;64861;47.546;19.254;2023-10-31T00:00:37;4.85;;;1.80;;
74620;SDS011;64861;47.546;19.254;2023-10-31T00:03:03;3.63;;;1.63;;
74620;SDS011;64861;47.546;19.254;2023-10-31T00:05:28;3.85;;;1.77;;
74620;SDS011;64861;47.546;19.254;2023-10-31T00:07:54;4.80;;;1.92;;
74620;SDS011;64861;47.546;19.254;2023-10-31T00:10:19;3.92;;;1.67;;
74620;SDS011;64861;47.546;19.254;2023-10-31T00:12:45;4.53;;;1.88;;
74620;SDS011;64861;47.546;19.254;2023-10-31T00:15:10;4.30;;;1.90;;
74620;SDS011;64861;47.546;19.254;2023-10-31T00:17:35;4.70;;;1.98;;
74620;SDS011;64861;47.546;19.254;2023-10-31T00:20:01;4.75;;;1.83;;
74620;SDS011;64861;47.546;19.254;2023-10-31T00:22:27;5.15;;;2.10;;
74620;SDS011;64861;47.546;19.254;2023-10-31T00:24:52;5.13;;;1.98;;
74620;SDS011;64861;47.546;19.254;2023-10-31T00:27:17;3.20;;;1.48;;
74620;SDS011;64861;47.546;19.254;2023-10-31T00:29:43;2.90;;;1.60;;
74620;SDS011;64861;47.546;19.254;2023-10-31T00:32:08;9.10;;;2.13;;
74620;SDS011;64861;47.546;19.254;2023-10-31T00:34:34;4.57;;;2.08;;
74620;SDS011;64861;47.546;19.254;2023-10-31T00:36:59;4.50;;;1.98;;
74620;SDS011;64861;47.546;19.254;2023-10-31T00:39:25;4.97;;;2.30;;
74620;SDS011;64861;47.546;19.254;2023-10-31T00:41:50;4.57;;;1.88;;
74620;SDS011;64861;47.546;19.254;2023-10-31T00:44:16;5.03;;;2.15;;
74620;SDS011;64861;47.546;19.254;2023-10-31T00:46:41;4.32;;;2.05;;
74620;SDS011;64861;47.546;19.254;2023-10-31T00:49:07;3.63;;;1.80;;
74620;SDS011;64861;47.546;19.254;2023-10-31T00:51:32;4.07;;;1.83;;
74620;SDS011;64861;47.546;19.254;2023-10-31T00:53:58;3.42;;;1.73;;
74620;SDS011;64861;47.546;19.254;2023-10-31T00:56:23;4.65;;;2.22;;
74620;SDS011;64861;47.546;19.254;2023-10-31T00:58:48;3.80;;;1.80;;
74620;SDS011;64861;47.546;19.254;2023-10-31T01:01:14;5.40;;;2.50;;
74620;SDS011;64861;47.546;19.254;2023-10-31T01:03:40;4.43;;;2.13;;
74620;SDS011;64861;47.546;19.254;2023-10-31T01:06:05;4.90;;;2.15;;
74620;SDS011;64861;47.546;19.254;2023-10-31T01:08:31;4.40;;;2.33;;
74620;SDS011;64861;47.546;19.254;2023-10-31T01:10:57;4.25;;;2.10;;
74620;SDS011;64861;47.546;19.254;2023-10-31T01:13:22;6.28;;;2.25;;
74620;SDS011;64861;47.546;19.254;2023-10-31T01:15:47;5.22;;;2.38;;
74620;SDS011;64861;47.546;19.254;2023-10-31T01:18:13;4.80;;;2.30;;
74620;SDS011;64861;47.546;19.254;2023-10-31T01:20:38;5.43;;;2.08;;
74620;SDS011;64861;47.546;19.254;2023-10-31T01:23:04;5.75;;;2.47;;
74620;SDS011;64861;47.546;19.254;2023-10-31T01:25:29;4.68;;;2.20;;
74620;SDS011;64861;47.546;19.254;2023-10-31T01:27:55;5.35;;;2.30;;
74620;SDS011;64861;47.546;19.254;2023-10-31T01:30:20;5.20;;;2.28;;
74620;SDS011;64861;47.546;19.254;2023-10-31T01:32:46;4.40;;;1.90;;
74620;SDS011;64861;47.546;19.254;2023-10-31T01:35:11;5.00;;;2.00;;
74620;SDS011;64861;47.546;19.254;2023-10-31T01:37:37;4.30;;;2.05;;
74620;SDS011;64861;47.546;19.254;2023-10-31T01:40:03;4.90;;;1.95;;
74620;SDS011;64861;47.546;19.254;2023-10-31T01:42:32;4.05;;;1.98;;
74620;SDS011;64861;47.546;19.254;2023-10-31T01:44:57;5.18;;;2.22;;
74620;SDS011;64861;47.546;19.254;2023-10-31T01:47:23;4.97;;;2.00;;
74620;SDS011;64861;47.546;19.254;2023-10-31T01:49:49;6.97;;;2.28;;
74620;SDS011;64861;47.546;19.254;2023-10-31T01:52:16;4.88;;;1.98;;
74620;SDS011;64861;47.546;19.254;2023-10-31T01:54:42;5.38;;;2.53;;
74620;SDS011;64861;47.546;19.254;2023-10-31T01:57:08;7.10;;;2.03;;
74620;SDS011;64861;47.546;19.254;2023-10-31T01:59:35;4.53;;;2.08;;
74620;SDS011;64861;47.546;19.254;2023-10-31T02:02:01;5.65;;;2.50;;
74620;SDS011;64861;47.546;19.254;2023-10-31T02:04:27;5.13;;;2.40;;
74620;SDS011;64861;47.546;19.254;2023-10-31T02:06:52;6.65;;;2.35;;
74620;SDS011;64861;47.546;19.254;2023-10-31T02:09:18;4.85;;;2.28;;
74620;SDS011;64861;47.546;19.254;2023-10-31T02:11:43;6.55;;;2.40;;
74620;SDS011;64861;47.546;19.254;2023-10-31T02:14:09;4.70;;;2.40;;
74620;SDS011;64861;47.546;19.254;2023-10-31T02:16:34;5.05;;;2.15;;
74620;SDS011;64861;47.546;19.254;2023-10-31T02:19:00;5.00;;;2.30;;
74620;SDS011;64861;47.546;19.254;2023-10-31T02:21:25;5.68;;;2.38;;
74620;SDS011;64861;47.546;19.254;2023-10-31T02:23:59;5.75;;;2.45;;
74620;SDS011;64861;47.546;19.254;2023-10-31T02:26:31;5.07;;;2.47;;
74620;SDS011;64861;47.546;19.254;2023-10-31T02:28:58;4.80;;;2.05;;
74620;SDS011;64861;47.546;19.254;2023-10-31T02:31:23;4.82;;;2.10;;
74620;SDS011;64861;47.546;19.254;2023-10-31T02:33:49;5.18;;;2.33;;
74620;SDS011;64861;47.546;19.254;2023-10-31T02:36:15;5.32;;;2.30;;
74620;SDS011;64861;47.546;19.254;2023-10-31T02:38:40;4.45;;;2.25;;
74620;SDS011;64861;47.546;19.254;2023-10-31T02:41:06;5.10;;;2.33;;
74620;SDS011;64861;47.546;19.254;2023-10-31T02:43:31;6.65;;;2.58;;
74620;SDS011;64861;47.546;19.254;2023-10-31T02:45:57;4.35;;;2.17;;
74620;SDS011;64861;47.546;19.254;2023-10-31T02:48:22;6.22;;;2.30;;
74620;SDS011;64861;47.546;19.254;2023-10-31T02:50:49;4.65;;;2.17;;
74620;SDS011;64861;47.546;19.254;2023-10-31T02:53:15;5.90;;;2.50;;
74620;SDS011;64861;47.546;19.254;2023-10-31T02:55:41;6.13;;;2.83;;
74620;SDS011;64861;47.546;19.254;2023-10-31T02:58:06;4.72;;;2.40;;
74620;SDS011;64861;47.546;19.254;2023-10-31T03:00:32;5.75;;;2.50;;
74620;SDS011;64861;47.546;19.254;2023-10-31T03:02:58;4.30;;;2.20;;
74620;SDS011;64861;47.546;19.254;2023-10-31T03:05:23;5.55;;;2.13;;
74620;SDS011;64861;47.546;19.254;2023-10-31T03:07:49;5.72;;;2.50;;
74620;SDS011;64861;47.546;19.254;2023-10-31T03:10:14;4.85;;;2.40;;
74620;SDS011;64861;47.546;19.254;2023-10-31T03:12:40;5.00;;;2.40;;
74620;SDS011;64861;47.546;19.254;2023-10-31T03:15:06;5.13;;;2.25;;
74620;SDS011;64861;47.546;19.254;2023-10-31T03:17:32;5.55;;;2.35;;
74620;SDS011;64861;47.546;19.254;2023-10-31T03:19:57;6.38;;;2.50;;
74620;SDS011;64861;47.546;19.254;2023-10-31T03:22:23;4.75;;;2.28;;
74620;SDS011;64861;47.546;19.254;2023-10-31T03:24:49;4.28;;;2.15;;
74620;SDS011;64861;47.546;19.254;2023-10-31T03:27:14;5.85;;;2.60;;
74620;SDS011;64861;47.546;19.254;2023-10-31T03:29:39;6.38;;;2.50;;
74620;SDS011;64861;47.546;19.254;2023-10-31T03:32:05;5.05;;;2.25;;
74620;SDS011;64861;47.546;19.254;2023-10-31T03:34:31;4.57;;;2.20;;
74620;SDS011;64861;47.546;19.254;2023-10-31T03:36:56;4.80;;;2.10;;
74620;SDS011;64861;47.546;19.254;2023-10-31T03:39:21;6.57;;;2.40;;
74620;SDS011;64861;47.546;19.254;2023-10-31T03:41:47;5.32;;;2.50;;
74620;SDS011;64861;47.546;19.254;2023-10-31T03:44:12;3.80;;;2.10;;
74620;SDS011;64861;47.546;19.254;2023-10-31T03:46:38;5.13;;;2.40;;
74620;SDS011;64861;47.546;19.254;2023-10-31T03:49:03;5.28;;;2.40;;
74620;SDS011;64861;47.546;19.254;2023-10-31T03:51:30;4.65;;;2.30;;
74620;SDS011;64861;47.546;19.254;2023-10-31T03:53:55;5.05;;;2.30;;
74620;SDS011;64861;47.546;19.254;2023-10-31T03:56:21;5.88;;;2.60;;
74620;SDS011;64861;47.546;19.254;2023-10-31T03:58:46;4.53;;;2.47;;
74620;SDS011;64861;47.546;19.254;2023-10-31T04:01:12;4.07;;;2.00;;
74620;SDS011;64861;47.546;19.254;2023-10-31T04:03:40;4.40;;;1.95;;
74620;SDS011;64861;47.546;19.254;2023-10-31T04:06:06;4.80;;;2.17;;
74620;SDS011;64861;47.546;19.254;2023-10-31T04:08:31;5.47;;;2.40;;
74620;SDS011;64861;47.546;19.254;2023-10-31T04:10:57;4.60;;;2.30;;
74620;SDS011;64861;47.546;19.254;2023-10-31T04:13:22;4.20;;;2.20;;
74620;SDS011;64861;47.546;19.254;2023-10-31T04:15:48;6.20;;;2.60;;
74620;SDS011;64861;47.546;19.254;2023-10-31T04:18:13;4.88;;;2.40;;
74620;SDS011;64861;47.546;19.254;2023-10-31T04:20:41;5.15;;;2.40;;
74620;SDS011;64861;47.546;19.254;2023-10-31T04:23:07;4.18;;;2.20;;
74620;SDS011;64861;47.546;19.254;2023-10-31T04:25:33;4.68;;;2.22;;
74620;SDS011;64861;47.546;19.254;2023-10-31T04:27:59;4.72;;;2.40;;
74620;SDS011;64861;47.546;19.254;2023-10-31T04:30:25;5.30;;;2.50;;
74620;SDS011;64861;47.546;19.254;2023-10-31T04:32:51;5.25;;;2.35;;
74620;SDS011;64861;47.546;19.254;2023-10-31T04:35:17;4.32;;;2.05;;
74620;SDS011;64861;47.546;19.254;2023-10-31T04:37:42;4.38;;;2.13;;
74620;SDS011;64861;47.546;19.254;2023-10-31T04:40:08;4.70;;;2.10;;
74620;SDS011;64861;47.546;19.254;2023-10-31T04:42:34;5.68;;;2.10;;
74620;SDS011;64861;47.546;19.254;2023-10-31T04:44:59;5.13;;;2.40;;
74620;SDS011;64861;47.546;19.254;2023-10-31T04:47:25;4.68;;;2.08;;
74620;SDS011;64861;47.546;19.254;2023-10-31T04:49:50;4.88;;;2.40;;
74620;SDS011;64861;47.546;19.254;2023-10-31T04:52:17;5.20;;;2.33;;
74620;SDS011;64861;47.546;19.254;2023-10-31T04:54:44;6.90;;;2.45;;
74620;SDS011;64861;47.546;19.254;2023-10-31T04:57:10;4.18;;;2.22;;
74620;SDS011;64861;47.546;19.254;2023-10-31T04:59:36;4.35;;;2.10;;
74620;SDS011;64861;47.546;19.254;2023-10-31T05:02:02;5.80;;;2.08;;
74620;SDS011;64861;47.546;19.254;2023-10-31T05:04:28;4.57;;;2.10;;
74620;SDS011;64861;47.546;19.254;2023-10-31T05:06:54;4.47;;;2.17;;
74620;SDS011;64861;47.546;19.254;2023-10-31T05:09:19;5.22;;;2.28;;
74620;SDS011;64861;47.546;19.254;2023-10-31T05:11:45;4.88;;;2.35;;
74620;SDS011;64861;47.546;19.254;2023-10-31T05:14:10;5.03;;;2.20;;
74620;SDS011;64861;47.546;19.254;2023-10-31T05:16:40;4.03;;;2.20;;
74620;SDS011;64861;47.546;19.254;2023-10-31T05:19:08;3.80;;;2.00;;
74620;SDS011;64861;47.546;19.254;2023-10-31T05:21:34;5.15;;;2.33;;
74620;SDS011;64861;47.546;19.254;2023-10-31T05:24:00;4.53;;;2.10;;
74620;SDS011;64861;47.546;19.254;2023-10-31T05:26:25;4.03;;;1.90;;
74620;SDS011;64861;47.546;19.254;2023-10-31T05:28:52;4.82;;;2.20;;
74620;SDS011;64861;47.546;19.254;2023-10-31T05:31:18;4.80;;;2.03;;
74620;SDS011;64861;47.546;19.254;2023-10-31T05:33:43;4.75;;;2.28;;
74620;SDS011;64861;47.546;19.254;2023-10-31T05:36:21;4.57;;;1.83;;
74620;SDS011;64861;47.546;19.254;2023-10-31T05:38:48;5.20;;;2.00;;
74620;SDS011;64861;47.546;19.254;2023-10-31T05:41:14;4.90;;;2.00;;
74620;SDS011;64861;47.546;19.254;2023-10-31T05:43:40;5.00;;;2.20;;
74620;SDS011;64861;47.546;19.254;2023-10-31T05:46:06;3.92;;;1.98;;
74620;SDS011;64861;47.546;19.254;2023-10-31T05:48:36;3.70;;;1.90;;
74620;SDS011;64861;47.546;19.254;2023-10-31T05:51:12;4.15;;;2.05;;
74620;SDS011;64861;47.546;19.254;2023-10-31T05:53:41;4.72;;;2.05;;
74620;SDS011;64861;47.546;19.254;2023-10-31T05:56:09;4.18;;;2.00;;
74620;SDS011;64861;47.546;19.254;2023-10-31T05:58:39;5.50;;;2.28;;
74620;SDS011;64861;47.546;19.254;2023-10-31T06:01:05;3.72;;;1.95;;
74620;SDS011;64861;47.546;19.254;2023-10-31T06:03:31;4.32;;;1.85;;
74620;SDS011;64861;47.546;19.254;2023-10-31T06:05:57;3.88;;;2.05;;
74620;SDS011;64861;47.546;19.254;2023-10-31T06:08:23;3.58;;;1.90;;
74620;SDS011;64861;47.546;19.254;2023-10-31T06:10:49;4.15;;;2.03;;
74620;SDS011;64861;47.546;19.254;2023-10-31T06:13:16;4.32;;;2.05;;
74620;SDS011;64861;47.546;19.254;2023-10-31T06:15:41;4.72;;;2.00;;
74620;SDS011;64861;47.546;19.254;2023-10-31T06:18:07;5.57;;;2.03;;
74620;SDS011;64861;47.546;19.254;2023-10-31T06:20:33;3.75;;;2.05;;
74620;SDS011;64861;47.546;19.254;2023-10-31T06:23:00;4.03;;;1.73;;
74620;SDS011;64861;47.546;19.254;2023-10-31T06:25:26;4.50;;;1.98;;
74620;SDS011;64861;47.546;19.254;2023-10-31T06:27:51;4.68;;;2.30;;
74620;SDS011;64861;47.546;19.254;2023-10-31T06:30:17;4.43;;;2.10;;
74620;SDS011;64861;47.546;19.254;2023-10-31T06:32:42;5.30;;;2.10;;
74620;SDS011;64861;47.546;19.254;2023-10-31T06:35:08;3.75;;;1.80;;
74620;SDS011;64861;47.546;19.254;2023-10-31T06:37:33;4.55;;;2.03;;
74620;SDS011;64861;47.546;19.254;2023-10-31T06:39:59;4.80;;;2.35;;
74620;SDS011;64861;47.546;19.254;2023-10-31T06:42:25;4.38;;;1.85;;
74620;SDS011;64861;47.546;19.254;2023-10-31T06:44:50;5.20;;;2.17;;
74620;SDS011;64861;47.546;19.254;2023-10-31T06:47:16;3.50;;;1.92;;
74620;SDS011;64861;47.546;19.254;2023-10-31T06:49:41;3.83;;;1.77;;
74620;SDS011;64861;47.546;19.254;2023-10-31T06:52:06;3.70;;;1.75;;
74620;SDS011;64861;47.546;19.254;2023-10-31T06:54:32;4.50;;;1.90;;
74620;SDS011;64861;47.546;19.254;2023-10-31T06:56:57;4.03;;;1.70;;
74620;SDS011;64861;47.546;19.254;2023-10-31T06:59:23;3.47;;;1.77;;
74620;SDS011;64861;47.546;19.254;2023-10-31T07:01:51;3.17;;;1.67;;
74620;SDS011;64861;47.546;19.254;2023-10-31T07:04:17;3.85;;;1.77;;
74620;SDS011;64861;47.546;19.254;2023-10-31T07:06:43;3.70;;;1.73;;
74620;SDS011;64861;47.546;19.254;2023-10-31T07:09:08;4.28;;;1.98;;
74620;SDS011;64861;47.546;19.254;2023-10-31T07:11:34;4.30;;;2.00;;
74620;SDS011;64861;47.546;19.254;2023-10-31T07:14:01;4.07;;;2.00;;
74620;SDS011;64861;47.546;19.254;2023-10-31T07:16:31;4.45;;;2.08;;
74620;SDS011;64861;47.546;19.254;2023-10-31T07:18:57;3.80;;;1.98;;
74620;SDS011;64861;47.546;19.254;2023-10-31T07:21:23;4.97;;;2.00;;
74620;SDS011;64861;47.546;19.254;2023-10-31T07:23:48;3.40;;;1.88;;
74620;SDS011;64861;47.546;19.254;2023-10-31T07:26:14;3.30;;;2.00;;
74620;SDS011;64861;47.546;19.254;2023-10-31T07:28:39;4.68;;;2.10;;
74620;SDS011;64861;47.546;19.254;2023-10-31T07:31:05;4.60;;;2.10;;
74620;SDS011;64861;47.546;19.254;2023-10-31T07:33:30;3.58;;;1.65;;
74620;SDS011;64861;47.546;19.254;2023-10-31T07:35:56;3.28;;;1.50;;
74620;SDS011;64861;47.546;19.254;2023-10-31T07:38:21;3.03;;;1.48;;
74620;SDS011;64861;47.546;19.254;2023-10-31T07:40:46;4.55;;;1.92;;
74620;SDS011;64861;47.546;19.254;2023-10-31T07:43:13;4.25;;;2.10;;
74620;SDS011;64861;47.546;19.254;2023-10-31T07:45:39;3.75;;;1.60;;
74620;SDS011;64861;47.546;19.254;2023-10-31T07:48:05;3.83;;;1.80;;
74620;SDS011;64861;47.546;19.254;2023-10-31T07:50:30;4.78;;;1.60;;
74620;SDS011;64861;47.546;19.254;2023-10-31T07:52:56;4.38;;;1.83;;
74620;SDS011;64861;47.546;19.254;2023-10-31T07:55:21;3.15;;;1.75;;
74620;SDS011;64861;47.546;19.254;2023-10-31T07:57:47;3.95;;;1.80;;
74620;SDS011;64861;47.546;19.254;2023-10-31T08:00:12;3.70;;;1.85;;
74620;SDS011;64861;47.546;19.254;2023-10-31T08:02:38;4.68;;;1.70;;
74620;SDS011;64861;47.546;19.254;2023-10-31T08:05:04;3.88;;;1.58;;
74620;SDS011;64861;47.546;19.254;2023-10-31T08:07:30;3.78;;;1.70;;
74620;SDS011;64861;47.546;19.254;2023-10-31T08:09:55;3.95;;;1.95;;
74620;SDS011;64861;47.546;19.254;2023-10-31T08:12:21;4.10;;;1.88;;
74620;SDS011;64861;47.546;19.254;2023-10-31T08:14:47;3.20;;;1.73;;
74620;SDS011;64861;47.546;19.254;2023-10-31T08:17:13;5.63;;;1.77;;
74620;SDS011;64861;47.546;19.254;2023-10-31T08:19:38;3.22;;;1.60;;
74620;SDS011;64861;47.546;19.254;2023-10-31T08:22:04;4.35;;;1.80;;
74620;SDS011;64861;47.546;19.254;2023-10-31T08:24:29;5.15;;;1.63;;
74620;SDS011;64861;47.546;19.254;2023-10-31T08:26:54;3.58;;;1.60;;
74620;SDS011;64861;47.546;19.254;2023-10-31T08:29:20;3.30;;;1.50;;
74620;SDS011;64861;47.546;19.254;2023-10-31T08:31:46;14.38;;;1.90;;
74620;SDS011;64861;47.546;19.254;2023-10-31T08:34:11;3.15;;;1.45;;
74620;SDS011;64861;47.546;19.254;2023-10-31T08:36:37;3.28;;;1.40;;
74620;SDS011;64861;47.546;19.254;2023-10-31T08:39:03;3.85;;;1.70;;
74620;SDS011;64861;47.546;19.254;2023-10-31T08:41:28;3.85;;;1.50;;
74620;SDS011;64861;47.546;19.254;2023-10-31T08:43:54;4.40;;;1.70;;
74620;SDS011;64861;47.546;19.254;2023-10-31T08:46:23;2.47;;;1.30;;
74620;SDS011;64861;47.546;19.254;2023-10-31T08:48:49;2.88;;;1.50;;
74620;SDS011;64861;47.546;19.254;2023-10-31T08:51:14;3.03;;;1.30;;
74620;SDS011;64861;47.546;19.254;2023-10-31T08:53:40;2.95;;;1.50;;
74620;SDS011;64861;47.546;19.254;2023-10-31T08:56:05;3.95;;;1.70;;
74620;SDS011;64861;47.546;19.254;2023-10-31T08:58:32;3.67;;;1.65;;
74620;SDS011;64861;47.546;19.254;2023-10-31T09:00:57;3.58;;;1.40;;
74620;SDS011;64861;47.546;19.254;2023-10-31T09:03:23;3.40;;;1.40;;
74620;SDS011;64861;47.546;19.254;2023-10-31T09:05:48;3.75;;;1.60;;
74620;SDS011;64861;47.546;19.254;2023-10-31T09:08:14;3.15;;;1.45;;
74620;SDS011;64861;47.546;19.254;2023-10-31T09:10:39;3.25;;;1.58;;
74620;SDS011;64861;47.546;19.254;2023-10-31T09:13:06;4.13;;;1.48;;
74620;SDS011;64861;47.546;19.254;2023-10-31T09:15:31;3.65;;;1.40;;
74620;SDS011;64861;47.546;19.254;2023-10-31T09:18:00;2.65;;;1.23;;
74620;SDS011;64861;47.546;19.254;2023-10-31T09:20:25;3.85;;;1.50;;
74620;SDS011;64861;47.546;19.254;2023-10-31T09:22:51;3.42;;;1.50;;
74620;SDS011;64861;47.546;19.254;2023-10-31T09:25:17;3.33;;;1.60;;
74620;SDS011;64861;47.546;19.254;2023-10-31T09:27:45;2.75;;;1.30;;
74620;SDS011;64861;47.546;19.254;2023-10-31T09:30:11;2.60;;;1.13;;
74620;SDS011;64861;47.546;19.254;2023-10-31T09:32:36;2.72;;;1.10;;
74620;SDS011;64861;47.546;19.254;2023-10-31T09:35:03;3.60;;;1.33;;
74620;SDS011;64861;47.546;19.254;2023-10-31T09:37:28;5.65;;;1.50;;
74620;SDS011;64861;47.546;19.254;2023-10-31T09:39:54;2.97;;;1.30;;
74620;SDS011;64861;47.546;19.254;2023-10-31T09:42:21;3.10;;;1.20;;
74620;SDS011;64861;47.546;19.254;2023-10-31T09:44:46;2.38;;;1.30;;
74620;SDS011;64861;47.546;19.254;2023-10-31T09:47:11;2.83;;;1.27;;
74620;SDS011;64861;47.546;19.254;2023-10-31T09:49:37;2.58;;;1.30;;
74620;SDS011;64861;47.546;19.254;2023-10-31T09:52:03;3.65;;;1.30;;
74620;SDS011;64861;47.546;19.254;2023-10-31T09:54:28;2.75;;;1.38;;
74620;SDS011;64861;47.546;19.254;2023-10-31T09:56:55;2.90;;;1.23;;
74620;SDS011;64861;47.546;19.254;2023-10-31T09:59:20;3.70;;;1.35;;
74620;SDS011;64861;47.546;19.254;2023-10-31T10:01:46;3.33;;;1.30;;
74620;SDS011;64861;47.546;19.254;2023-10-31T10:04:11;3.05;;;1.23;;
74620;SDS011;64861;47.546;19.254;2023-10-31T10:06:49;2.28;;;1.10;;
74620;SDS011;64861;47.546;19.254;2023-10-31T10:09:15;2.63;;;1.20;;
74620;SDS011;64861;47.546;19.254;2023-10-31T10:11:41;2.25;;;1.00;;
74620;SDS011;64861;47.546;19.254;2023-10-31T10:14:07;2.92;;;1.27;;
74620;SDS011;64861;47.546;19.254;2023-10-31T10:16:34;2.28;;;1.20;;
74620;SDS011;64861;47.546;19.254;2023-10-31T10:19:15;2.50;;;1.27;;
74620;SDS011;64861;47.546;19.254;2023-10-31T10:21:57;3.30;;;1.42;;
74620;SDS011;64861;47.546;19.254;2023-10-31T10:24:23;2.85;;;1.30;;
74620;SDS011;64861;47.546;19.254;2023-10-31T10:26:50;3.35;;;1.30;;
74620;SDS011;64861;47.546;19.254;2023-10-31T10:29:17;2.63;;;1.20;;
74620;SDS011;64861;47.546;19.254;2023-10-31T10:31:43;3.97;;;1.40;;
74620;SDS011;64861;47.546;19.254;2023-10-31T10:34:10;4.10;;;1.20;;
74620;SDS011;64861;47.546;19.254;2023-10-31T10:36:38;3.80;;;1.30;;
74620;SDS011;64861;47.546;19.254;2023-10-31T10:39:04;5.68;;;1.20;;
74620;SDS011;64861;47.546;19.254;2023-10-31T10:41:33;2.92;;;1.23;;
74620;SDS011;64861;47.546;19.254;2023-10-31T10:44:09;2.13;;;1.20;;
74620;SDS011;64861;47.546;19.254;2023-10-31T10:46:38;4.53;;;1.25;;
74620;SDS011;64861;47.546;19.254;2023-10-31T10:49:06;4.70;;;1.30;;
74620;SDS011;64861;47.546;19.254;2023-10-31T11:00:05;4.82;;;1.30;;
74620;SDS011;64861;47.546;19.254;2023-10-31T11:02:34;2.17;;;1.17;;
74620;SDS011;64861;47.546;19.254;2023-10-31T11:05:08;8.45;;;1.42;;
74620;SDS011;64861;47.546;19.254;2023-10-31T11:07:34;3.85;;;1.20;;
74620;SDS011;64861;47.546;19.254;2023-10-31T11:10:00;3.13;;;1.30;;
74620;SDS011;64861;47.546;19.254;2023-10-31T11:12:30;4.35;;;1.38;;
74620;SDS011;64861;47.546;19.254;2023-10-31T11:14:59;3.58;;;1.20;;
74620;SDS011;64861;47.546;19.254;2023-10-31T11:17:28;5.05;;;1.38;;
74620;SDS011;64861;47.546;19.254;2023-10-31T11:19:56;6.93;;;1.33;;
74620;SDS011;64861;47.546;19.254;2023-10-31T11:22:22;8.48;;;1.48;;
74620;SDS011;64861;47.546;19.254;2023-10-31T11:24:50;8.38;;;1.35;;
74620;SDS011;64861;47.546;19.254;2023-10-31T11:27:16;5.85;;;1.35;;
74620;SDS011;64861;47.546;19.254;2023-10-31T11:29:43;2.92;;;1.20;;
74620;SDS011;64861;47.546;19.254;2023-10-31T11:32:09;4.35;;;1.20;;
74620;SDS011;64861;47.546;19.254;2023-10-31T11:34:36;4.25;;;1.20;;
74620;SDS011;64861;47.546;19.254;2023-10-31T11:37:24;8.02;;;1.85;;
74620;SDS011;64861;47.546;19.254;2023-10-31T11:42:50;3.15;;;1.20;;
74620;SDS011;64861;47.546;19.254;2023-10-31T11:47:54;4.63;;;1.38;;
74620;SDS011;64861;47.546;19.254;2023-10-31T11:50:20;7.68;;;1.35;;
74620;SDS011;64861;47.546;19.254;2023-10-31T11:52:58;10.18;;;1.55;;
74620;SDS011;64861;47.546;19.254;2023-10-31T11:55:30;14.13;;;1.30;;
74620;SDS011;64861;47.546;19.254;2023-10-31T11:57:58;5.40;;;1.33;;
74620;SDS011;64861;47.546;19.254;2023-10-31T12:00:24;5.80;;;1.40;;
74620;SDS011;64861;47.546;19.254;2023-10-31T12:03:08;6.07;;;1.20;;
74620;SDS011;64861;47.546;19.254;2023-10-31T12:05:33;5.28;;;1.60;;
74620;SDS011;64861;47.546;19.254;2023-10-31T12:07:58;4.70;;;1.30;;
74620;SDS011;64861;47.546;19.254;2023-10-31T12:10:25;4.30;;;1.17;;
74620;SDS011;64861;47.546;19.254;2023-10-31T12:12:58;5.10;;;1.13;;
74620;SDS011;64861;47.546;19.254;2023-10-31T12:15:24;4.22;;;1.40;;
74620;SDS011;64861;47.546;19.254;2023-10-31T12:17:50;7.32;;;1.45;;
74620;SDS011;64861;47.546;19.254;2023-10-31T12:20:15;4.35;;;1.15;;
74620;SDS011;64861;47.546;19.254;2023-10-31T12:22:42;5.15;;;1.38;;
74620;SDS011;64861;47.546;19.254;2023-10-31T12:25:08;4.80;;;1.30;;
74620;SDS011;64861;47.546;19.254;2023-10-31T12:27:50;4.93;;;1.30;;
74620;SDS011;64861;47.546;19.254;2023-10-31T12:30:16;3.95;;;1.33;;
74620;SDS011;64861;47.546;19.254;2023-10-31T12:32:44;4.93;;;1.13;;
74620;SDS011;64861;47.546;19.254;2023-10-31T12:35:10;4.05;;;1.25;;
74620;SDS011;64861;47.546;19.254;2023-10-31T12:37:48;6.50;;;1.40;;
74620;SDS011;64861;47.546;19.254;2023-10-31T12:40:16;3.78;;;1.30;;
74620;SDS011;64861;47.546;19.254;2023-10-31T12:42:43;5.43;;;1.20;;
74620;SDS011;64861;47.546;19.254;2023-10-31T12:45:11;4.68;;;1.27;;
74620;SDS011;64861;47.546;19.254;2023-10-31T12:47:38;4.43;;;1.20;;
74620;SDS011;64861;47.546;19.254;2023-10-31T12:50:11;6.60;;;1.52;;
74620;SDS011;64861;47.546;19.254;2023-10-31T12:52:56;4.00;;;1.42;;
74620;SDS011;64861;47.546;19.254;2023-10-31T12:55:24;3.40;;;1.23;;
74620;SDS011;64861;47.546;19.254;2023-10-31T12:57:51;5.78;;;1.50;;
74620;SDS011;64861;47.546;19.254;2023-10-31T13:00:18;5.38;;;1.50;;
74620;SDS011;64861;47.546;19.254;2023-10-31T13:02:49;3.63;;;1.20;;
74620;SDS011;64861;47.546;19.254;2023-10-31T13:05:16;12.27;;;1.40;;
74620;SDS011;64861;47.546;19.254;2023-10-31T13:07:49;3.90;;;1.23;;
74620;SDS011;64861;47.546;19.254;2023-10-31T13:12:45;7.05;;;1.27;;
74620;SDS011;64861;47.546;19.254;2023-10-31T13:15:15;5.60;;;1.40;;
74620;SDS011;64861;47.546;19.254;2023-10-31T13:17:43;4.40;;;1.38;;
74620;SDS011;64861;47.546;19.254;2023-10-31T13:20:10;5.30;;;1.38;;
74620;SDS011;64861;47.546;19.254;2023-10-31T13:22:37;4.28;;;1.15;;
74620;SDS011;64861;47.546;19.254;2023-10-31T13:25:04;3.97;;;1.58;;
74620;SDS011;64861;47.546;19.254;2023-10-31T13:27:31;2.55;;;1.30;;
74620;SDS011;64861;47.546;19.254;2023-10-31T13:29:57;3.00;;;1.17;;
74620;SDS011;64861;47.546;19.254;2023-10-31T13:32:23;3.15;;;1.15;;
74620;SDS011;64861;47.546;19.254;2023-10-31T13:34:49;3.67;;;1.25;;
74620;SDS011;64861;47.546;19.254;2023-10-31T13:37:15;4.03;;;1.30;;
74620;SDS011;64861;47.546;19.254;2023-10-31T13:39:40;3.53;;;1.20;;
74620;SDS011;64861;47.546;19.254;2023-10-31T13:42:05;4.30;;;1.50;;
74620;SDS011;64861;47.546;19.254;2023-10-31T13:44:33;4.40;;;1.38;;
74620;SDS011;64861;47.546;19.254;2023-10-31T13:46:59;4.72;;;1.20;;
74620;SDS011;64861;47.546;19.254;2023-10-31T13:49:24;4.90;;;1.40;;
74620;SDS011;64861;47.546;19.254;2023-10-31T13:51:50;4.15;;;1.40;;
74620;SDS011;64861;47.546;19.254;2023-10-31T13:54:15;3.35;;;1.52;;
74620;SDS011;64861;47.546;19.254;2023-10-31T13:56:41;3.75;;;1.23;;
74620;SDS011;64861;47.546;19.254;2023-10-31T13:59:06;2.33;;;1.20;;
74620;SDS011;64861;47.546;19.254;2023-10-31T14:01:32;4.10;;;1.50;;
74620;SDS011;64861;47.546;19.254;2023-10-31T14:03:57;4.63;;;1.42;;
74620;SDS011;64861;47.546;19.254;2023-10-31T14:06:23;4.80;;;1.20;;
74620;SDS011;64861;47.546;19.254;2023-10-31T14:08:50;5.93;;;1.73;;
74620;SDS011;64861;47.546;19.254;2023-10-31T14:11:16;4.75;;;1.40;;
74620;SDS011;64861;47.546;19.254;2023-10-31T14:13:42;3.42;;;1.38;;
74620;SDS011;64861;47.546;19.254;2023-10-31T14:16:09;3.40;;;1.30;;
74620;SDS011;64861;47.546;19.254;2023-10-31T14:18:37;5.47;;;1.40;;
74620;SDS011;64861;47.546;19.254;2023-10-31T14:21:02;3.95;;;1.40;;
74620;SDS011;64861;47.546;19.254;2023-10-31T14:23:28;3.20;;;1.38;;
74620;SDS011;64861;47.546;19.254;2023-10-31T14:25:54;4.35;;;1.40;;
74620;SDS011;64861;47.546;19.254;2023-10-31T14:28:19;4.13;;;1.40;;
74620;SDS011;64861;47.546;19.254;2023-10-31T14:30:45;4.15;;;1.25;;
74620;SDS011;64861;47.546;19.254;2023-10-31T14:33:10;3.63;;;1.30;;
74620;SDS011;64861;47.546;19.254;2023-10-31T14:35:35;4.45;;;1.70;;
74620;SDS011;64861;47.546;19.254;2023-10-31T14:38:01;3.70;;;1.52;;
74620;SDS011;64861;47.546;19.254;2023-10-31T14:40:26;3.95;;;1.60;;
74620;SDS011;64861;47.546;19.254;2023-10-31T14:42:52;3.72;;;1.40;;
74620;SDS011;64861;47.546;19.254;2023-10-31T14:45:17;3.65;;;1.50;;